sensor_id;sensor_type;location;lat;lon;timestamp;P1;durP1;ratioP1;P2;durP2;ratioP2
21305;SDS011;10812;51.838;5.838;2023-02-18T00:01:34;32.40;;;17.50;;
21305;SDS011;10812;51.838;5.838;2023-02-18T00:04:04;27.20;;;16.57;;
21305;SDS011;10812;51.838;5.838;2023-02-18T00:06:33;33.90;;;16.53;;
21305;SDS011;10812;51.838;5.838;2023-02-18T00:09:02;31.87;;;17.33;;
21305;SDS011;10812;51.838;5.838;2023-02-18T00:11:33;33.83;;;16.33;;
21305;SDS011;10812;51.838;5.838;2023-02-18T00:14:05;35.00;;;17.83;;
21305;SDS011;10812;51.838;5.838;2023-02-18T00:16:38;30.73;;;17.40;;
21305;SDS011;10812;51.838;5.838;2023-02-18T00:19:09;32.37;;;17.90;;
21305;SDS011;10812;51.838;5.838;2023-02-18T00:21:39;31.07;;;17.27;;
21305;SDS011;10812;51.838;5.838;2023-02-18T00:24:07;32.07;;;17.07;;
21305;SDS011;10812;51.838;5.838;2023-02-18T00:26:37;38.50;;;19.03;;
21305;SDS011;10812;51.838;5.838;2023-02-18T00:29:06;39.77;;;19.40;;
21305;SDS011;10812;51.838;5.838;2023-02-18T00:31:35;35.17;;;18.53;;
21305;SDS011;10812;51.838;5.838;2023-02-18T00:34:04;34.23;;;18.43;;
21305;SDS011;10812;51.838;5.838;2023-02-18T00:36:33;37.53;;;19.60;;
21305;SDS011;10812;51.838;5.838;2023-02-18T00:39:05;38.87;;;19.23;;
21305;SDS011;10812;51.838;5.838;2023-02-18T00:41:34;30.47;;;17.83;;
21305;SDS011;10812;51.838;5.838;2023-02-18T00:44:03;31.57;;;19.00;;
21305;SDS011;10812;51.838;5.838;2023-02-18T00:46:32;34.03;;;19.43;;
21305;SDS011;10812;51.838;5.838;2023-02-18T00:49:01;37.67;;;19.93;;
21305;SDS011;10812;51.838;5.838;2023-02-18T00:51:30;33.63;;;19.40;;
21305;SDS011;10812;51.838;5.838;2023-02-18T00:53:59;34.43;;;18.73;;
21305;SDS011;10812;51.838;5.838;2023-02-18T00:56:28;33.47;;;19.63;;
21305;SDS011;10812;51.838;5.838;2023-02-18T00:58:56;39.00;;;21.27;;
21305;SDS011;10812;51.838;5.838;2023-02-18T01:01:24;33.67;;;19.50;;
21305;SDS011;10812;51.838;5.838;2023-02-18T01:03:53;36.03;;;19.43;;
21305;SDS011;10812;51.838;5.838;2023-02-18T01:06:21;36.43;;;19.53;;
21305;SDS011;10812;51.838;5.838;2023-02-18T01:08:49;35.20;;;19.37;;
21305;SDS011;10812;51.838;5.838;2023-02-18T01:11:18;34.97;;;19.93;;
21305;SDS011;10812;51.838;5.838;2023-02-18T01:13:47;34.90;;;20.07;;
21305;SDS011;10812;51.838;5.838;2023-02-18T01:16:15;35.23;;;18.20;;
21305;SDS011;10812;51.838;5.838;2023-02-18T01:18:44;32.00;;;18.93;;
21305;SDS011;10812;51.838;5.838;2023-02-18T01:21:12;37.20;;;18.50;;
21305;SDS011;10812;51.838;5.838;2023-02-18T01:23:40;38.87;;;18.83;;
21305;SDS011;10812;51.838;5.838;2023-02-18T01:26:09;34.93;;;19.17;;
21305;SDS011;10812;51.838;5.838;2023-02-18T01:28:39;37.37;;;19.53;;
21305;SDS011;10812;51.838;5.838;2023-02-18T01:31:09;33.13;;;18.13;;
21305;SDS011;10812;51.838;5.838;2023-02-18T01:33:39;35.33;;;19.30;;
21305;SDS011;10812;51.838;5.838;2023-02-18T01:36:08;34.50;;;18.27;;
21305;SDS011;10812;51.838;5.838;2023-02-18T01:38:37;33.70;;;18.30;;
21305;SDS011;10812;51.838;5.838;2023-02-18T01:41:06;33.40;;;18.30;;
21305;SDS011;10812;51.838;5.838;2023-02-18T01:43:34;33.10;;;17.37;;
21305;SDS011;10812;51.838;5.838;2023-02-18T01:46:05;40.17;;;19.03;;
21305;SDS011;10812;51.838;5.838;2023-02-18T01:48:40;34.37;;;18.60;;
21305;SDS011;10812;51.838;5.838;2023-02-18T01:51:11;33.90;;;17.40;;
21305;SDS011;10812;51.838;5.838;2023-02-18T01:53:44;34.40;;;17.63;;
21305;SDS011;10812;51.838;5.838;2023-02-18T01:56:18;30.87;;;18.07;;
21305;SDS011;10812;51.838;5.838;2023-02-18T01:58:52;36.67;;;17.97;;
21305;SDS011;10812;51.838;5.838;2023-02-18T02:01:24;39.10;;;20.20;;
21305;SDS011;10812;51.838;5.838;2023-02-18T02:03:53;34.00;;;17.37;;
21305;SDS011;10812;51.838;5.838;2023-02-18T02:06:22;32.93;;;18.03;;
21305;SDS011;10812;51.838;5.838;2023-02-18T02:08:52;38.63;;;19.43;;
21305;SDS011;10812;51.838;5.838;2023-02-18T02:11:25;38.07;;;18.93;;
21305;SDS011;10812;51.838;5.838;2023-02-18T02:14:10;36.93;;;19.00;;
21305;SDS011;10812;51.838;5.838;2023-02-18T02:16:49;40.13;;;18.93;;
21305;SDS011;10812;51.838;5.838;2023-02-18T02:19:40;40.17;;;20.13;;
21305;SDS011;10812;51.838;5.838;2023-02-18T02:25:46;36.17;;;19.13;;
21305;SDS011;10812;51.838;5.838;2023-02-18T02:28:43;38.63;;;19.73;;
21305;SDS011;10812;51.838;5.838;2023-02-18T02:31:36;37.00;;;18.33;;
21305;SDS011;10812;51.838;5.838;2023-02-18T02:34:27;35.43;;;19.97;;
21305;SDS011;10812;51.838;5.838;2023-02-18T02:37:06;41.70;;;19.43;;
21305;SDS011;10812;51.838;5.838;2023-02-18T02:39:42;33.40;;;17.13;;
21305;SDS011;10812;51.838;5.838;2023-02-18T02:42:24;39.87;;;18.83;;
21305;SDS011;10812;51.838;5.838;2023-02-18T02:45:00;39.37;;;18.30;;
21305;SDS011;10812;51.838;5.838;2023-02-18T02:47:34;33.90;;;17.57;;
21305;SDS011;10812;51.838;5.838;2023-02-18T02:50:12;31.57;;;18.00;;
21305;SDS011;10812;51.838;5.838;2023-02-18T02:52:48;34.10;;;17.30;;
21305;SDS011;10812;51.838;5.838;2023-02-18T02:55:19;32.33;;;17.77;;
21305;SDS011;10812;51.838;5.838;2023-02-18T02:57:48;34.80;;;17.03;;
21305;SDS011;10812;51.838;5.838;2023-02-18T03:08:28;34.57;;;16.80;;
21305;SDS011;10812;51.838;5.838;2023-02-18T03:11:05;32.53;;;17.13;;
21305;SDS011;10812;51.838;5.838;2023-02-18T03:13:43;30.57;;;17.40;;
21305;SDS011;10812;51.838;5.838;2023-02-18T03:16:22;39.60;;;18.67;;
21305;SDS011;10812;51.838;5.838;2023-02-18T03:18:56;35.57;;;19.83;;
21305;SDS011;10812;51.838;5.838;2023-02-18T03:21:30;39.57;;;20.33;;
21305;SDS011;10812;51.838;5.838;2023-02-18T03:24:04;43.17;;;20.10;;
21305;SDS011;10812;51.838;5.838;2023-02-18T03:26:37;34.20;;;18.80;;
21305;SDS011;10812;51.838;5.838;2023-02-18T03:29:09;43.07;;;22.07;;
21305;SDS011;10812;51.838;5.838;2023-02-18T03:31:40;43.20;;;20.07;;
21305;SDS011;10812;51.838;5.838;2023-02-18T03:34:14;39.13;;;20.13;;
21305;SDS011;10812;51.838;5.838;2023-02-18T03:36:45;43.27;;;21.10;;
21305;SDS011;10812;51.838;5.838;2023-02-18T03:39:15;49.73;;;20.83;;
21305;SDS011;10812;51.838;5.838;2023-02-18T03:41:44;45.37;;;20.30;;
21305;SDS011;10812;51.838;5.838;2023-02-18T03:44:13;42.63;;;20.30;;
21305;SDS011;10812;51.838;5.838;2023-02-18T03:46:41;41.60;;;20.90;;
21305;SDS011;10812;51.838;5.838;2023-02-18T04:04:34;24.10;;;13.40;;
21305;SDS011;10812;51.838;5.838;2023-02-18T04:07:03;26.90;;;13.47;;
21305;SDS011;10812;51.838;5.838;2023-02-18T04:09:31;25.43;;;12.10;;
21305;SDS011;10812;51.838;5.838;2023-02-18T04:11:59;20.07;;;10.23;;
21305;SDS011;10812;51.838;5.838;2023-02-18T04:14:27;19.40;;;10.03;;
21305;SDS011;10812;51.838;5.838;2023-02-18T04:16:55;17.93;;;9.67;;
21305;SDS011;10812;51.838;5.838;2023-02-18T04:19:23;19.67;;;9.60;;
21305;SDS011;10812;51.838;5.838;2023-02-18T04:21:53;15.63;;;9.13;;
21305;SDS011;10812;51.838;5.838;2023-02-18T04:24:21;14.97;;;8.70;;
21305;SDS011;10812;51.838;5.838;2023-02-18T04:26:49;18.83;;;8.90;;
21305;SDS011;10812;51.838;5.838;2023-02-18T04:29:17;13.33;;;7.17;;
21305;SDS011;10812;51.838;5.838;2023-02-18T04:31:45;12.97;;;7.33;;
21305;SDS011;10812;51.838;5.838;2023-02-18T04:34:13;14.60;;;6.77;;
21305;SDS011;10812;51.838;5.838;2023-02-18T04:36:41;12.73;;;7.20;;
21305;SDS011;10812;51.838;5.838;2023-02-18T04:39:11;11.23;;;6.20;;
21305;SDS011;10812;51.838;5.838;2023-02-18T04:41:39;12.60;;;6.83;;
21305;SDS011;10812;51.838;5.838;2023-02-18T04:44:07;11.50;;;6.03;;
21305;SDS011;10812;51.838;5.838;2023-02-18T04:46:35;9.37;;;5.80;;
21305;SDS011;10812;51.838;5.838;2023-02-18T04:49:03;10.83;;;6.17;;
21305;SDS011;10812;51.838;5.838;2023-02-18T04:51:31;11.13;;;5.70;;
21305;SDS011;10812;51.838;5.838;2023-02-18T04:53:59;10.20;;;5.63;;
21305;SDS011;10812;51.838;5.838;2023-02-18T04:56:29;8.13;;;5.20;;
21305;SDS011;10812;51.838;5.838;2023-02-18T04:58:57;10.70;;;5.40;;
21305;SDS011;10812;51.838;5.838;2023-02-18T05:01:25;9.60;;;5.47;;
21305;SDS011;10812;51.838;5.838;2023-02-18T05:03:53;9.50;;;5.47;;
21305;SDS011;10812;51.838;5.838;2023-02-18T05:06:21;7.53;;;4.60;;
21305;SDS011;10812;51.838;5.838;2023-02-18T05:08:50;7.77;;;4.50;;
21305;SDS011;10812;51.838;5.838;2023-02-18T05:11:18;10.83;;;5.33;;
21305;SDS011;10812;51.838;5.838;2023-02-18T05:13:47;10.30;;;5.37;;
21305;SDS011;10812;51.838;5.838;2023-02-18T05:16:15;8.63;;;5.40;;
21305;SDS011;10812;51.838;5.838;2023-02-18T05:18:43;9.50;;;5.50;;
21305;SDS011;10812;51.838;5.838;2023-02-18T05:21:11;8.43;;;5.20;;
21305;SDS011;10812;51.838;5.838;2023-02-18T05:23:40;8.03;;;4.57;;
21305;SDS011;10812;51.838;5.838;2023-02-18T05:26:08;7.53;;;4.67;;
21305;SDS011;10812;51.838;5.838;2023-02-18T05:28:36;7.20;;;4.47;;
21305;SDS011;10812;51.838;5.838;2023-02-18T05:31:06;7.93;;;5.37;;
21305;SDS011;10812;51.838;5.838;2023-02-18T05:33:34;10.00;;;5.20;;
21305;SDS011;10812;51.838;5.838;2023-02-18T05:36:02;6.77;;;4.33;;
21305;SDS011;10812;51.838;5.838;2023-02-18T05:38:31;8.47;;;5.27;;
21305;SDS011;10812;51.838;5.838;2023-02-18T05:41:00;9.20;;;5.57;;
21305;SDS011;10812;51.838;5.838;2023-02-18T05:43:28;9.43;;;5.83;;
21305;SDS011;10812;51.838;5.838;2023-02-18T05:45:56;8.03;;;4.67;;
21305;SDS011;10812;51.838;5.838;2023-02-18T05:48:25;10.53;;;6.30;;
21305;SDS011;10812;51.838;5.838;2023-02-18T05:50:54;8.97;;;5.13;;
21305;SDS011;10812;51.838;5.838;2023-02-18T05:53:22;9.30;;;5.67;;
21305;SDS011;10812;51.838;5.838;2023-02-18T05:55:50;8.27;;;5.27;;
21305;SDS011;10812;51.838;5.838;2023-02-18T05:58:18;8.97;;;5.53;;
21305;SDS011;10812;51.838;5.838;2023-02-18T06:00:46;8.60;;;5.17;;
21305;SDS011;10812;51.838;5.838;2023-02-18T06:03:14;9.43;;;5.40;;
21305;SDS011;10812;51.838;5.838;2023-02-18T06:05:44;9.03;;;5.53;;
21305;SDS011;10812;51.838;5.838;2023-02-18T06:08:15;8.23;;;4.90;;
21305;SDS011;10812;51.838;5.838;2023-02-18T06:10:45;9.63;;;4.70;;
21305;SDS011;10812;51.838;5.838;2023-02-18T06:13:13;9.30;;;4.97;;
21305;SDS011;10812;51.838;5.838;2023-02-18T06:15:41;7.93;;;5.07;;
21305;SDS011;10812;51.838;5.838;2023-02-18T06:18:10;8.13;;;5.63;;
21305;SDS011;10812;51.838;5.838;2023-02-18T06:20:38;8.33;;;4.90;;
21305;SDS011;10812;51.838;5.838;2023-02-18T06:23:08;7.70;;;5.03;;
21305;SDS011;10812;51.838;5.838;2023-02-18T06:25:37;7.80;;;5.00;;
21305;SDS011;10812;51.838;5.838;2023-02-18T06:28:05;8.70;;;5.43;;
21305;SDS011;10812;51.838;5.838;2023-02-18T06:30:33;7.50;;;5.30;;
21305;SDS011;10812;51.838;5.838;2023-02-18T06:33:01;6.43;;;4.03;;
21305;SDS011;10812;51.838;5.838;2023-02-18T06:35:30;8.93;;;5.23;;
21305;SDS011;10812;51.838;5.838;2023-02-18T06:37:58;7.77;;;4.90;;
21305;SDS011;10812;51.838;5.838;2023-02-18T06:40:28;7.13;;;4.60;;
21305;SDS011;10812;51.838;5.838;2023-02-18T06:42:57;7.10;;;5.00;;
21305;SDS011;10812;51.838;5.838;2023-02-18T06:45:25;7.50;;;4.47;;
21305;SDS011;10812;51.838;5.838;2023-02-18T06:47:53;7.77;;;5.13;;
21305;SDS011;10812;51.838;5.838;2023-02-18T06:50:22;7.30;;;4.43;;
21305;SDS011;10812;51.838;5.838;2023-02-18T06:52:50;8.73;;;5.50;;
21305;SDS011;10812;51.838;5.838;2023-02-18T06:55:19;7.10;;;4.90;;
21305;SDS011;10812;51.838;5.838;2023-02-18T06:57:48;7.23;;;4.73;;
21305;SDS011;10812;51.838;5.838;2023-02-18T07:00:16;6.27;;;4.00;;
21305;SDS011;10812;51.838;5.838;2023-02-18T07:02:45;5.87;;;3.90;;
21305;SDS011;10812;51.838;5.838;2023-02-18T07:05:13;5.97;;;4.10;;
21305;SDS011;10812;51.838;5.838;2023-02-18T07:07:42;6.83;;;4.30;;
21305;SDS011;10812;51.838;5.838;2023-02-18T07:10:10;7.00;;;4.27;;
21305;SDS011;10812;51.838;5.838;2023-02-18T07:12:38;6.30;;;4.10;;
21305;SDS011;10812;51.838;5.838;2023-02-18T07:15:08;5.83;;;3.27;;
21305;SDS011;10812;51.838;5.838;2023-02-18T07:17:37;5.33;;;3.57;;
21305;SDS011;10812;51.838;5.838;2023-02-18T07:20:06;5.63;;;3.93;;
21305;SDS011;10812;51.838;5.838;2023-02-18T07:22:35;6.37;;;3.57;;
21305;SDS011;10812;51.838;5.838;2023-02-18T07:25:03;7.93;;;4.27;;
21305;SDS011;10812;51.838;5.838;2023-02-18T07:27:31;5.40;;;3.57;;
21305;SDS011;10812;51.838;5.838;2023-02-18T07:30:00;4.90;;;3.13;;
21305;SDS011;10812;51.838;5.838;2023-02-18T07:32:29;5.60;;;3.00;;
21305;SDS011;10812;51.838;5.838;2023-02-18T07:34:58;5.40;;;2.87;;
21305;SDS011;10812;51.838;5.838;2023-02-18T07:37:26;5.50;;;3.73;;
21305;SDS011;10812;51.838;5.838;2023-02-18T07:39:54;2.50;;;2.03;;
21305;SDS011;10812;51.838;5.838;2023-02-18T07:42:22;4.20;;;2.90;;
21305;SDS011;10812;51.838;5.838;2023-02-18T07:44:51;4.63;;;2.83;;
21305;SDS011;10812;51.838;5.838;2023-02-18T07:47:19;3.53;;;2.60;;
21305;SDS011;10812;51.838;5.838;2023-02-18T07:49:49;4.13;;;2.43;;
21305;SDS011;10812;51.838;5.838;2023-02-18T07:52:17;3.40;;;2.33;;
21305;SDS011;10812;51.838;5.838;2023-02-18T07:54:45;6.10;;;3.37;;
21305;SDS011;10812;51.838;5.838;2023-02-18T07:57:14;5.27;;;3.20;;
21305;SDS011;10812;51.838;5.838;2023-02-18T07:59:42;5.10;;;3.20;;
21305;SDS011;10812;51.838;5.838;2023-02-18T08:02:11;5.23;;;3.90;;
21305;SDS011;10812;51.838;5.838;2023-02-18T08:04:46;10.83;;;4.60;;
21305;SDS011;10812;51.838;5.838;2023-02-18T08:07:16;13.00;;;6.50;;
21305;SDS011;10812;51.838;5.838;2023-02-18T08:09:46;17.43;;;7.00;;
21305;SDS011;10812;51.838;5.838;2023-02-18T08:12:16;10.53;;;6.70;;
21305;SDS011;10812;51.838;5.838;2023-02-18T08:14:44;12.27;;;6.57;;
21305;SDS011;10812;51.838;5.838;2023-02-18T08:17:12;10.47;;;6.93;;
21305;SDS011;10812;51.838;5.838;2023-02-18T08:19:40;11.27;;;6.97;;
21305;SDS011;10812;51.838;5.838;2023-02-18T08:22:08;11.67;;;6.27;;
21305;SDS011;10812;51.838;5.838;2023-02-18T08:24:38;12.87;;;7.20;;
21305;SDS011;10812;51.838;5.838;2023-02-18T08:27:06;10.87;;;5.97;;
21305;SDS011;10812;51.838;5.838;2023-02-18T08:29:34;15.37;;;6.27;;
21305;SDS011;10812;51.838;5.838;2023-02-18T08:32:02;13.63;;;5.63;;
21305;SDS011;10812;51.838;5.838;2023-02-18T08:34:31;9.43;;;5.60;;
21305;SDS011;10812;51.838;5.838;2023-02-18T08:37:00;13.07;;;5.90;;
21305;SDS011;10812;51.838;5.838;2023-02-18T08:39:32;10.87;;;5.07;;
21305;SDS011;10812;51.838;5.838;2023-02-18T08:42:02;10.43;;;4.80;;
21305;SDS011;10812;51.838;5.838;2023-02-18T08:44:30;11.30;;;5.17;;
21305;SDS011;10812;51.838;5.838;2023-02-18T08:46:58;8.30;;;4.63;;
21305;SDS011;10812;51.838;5.838;2023-02-18T08:49:27;9.80;;;4.77;;
21305;SDS011;10812;51.838;5.838;2023-02-18T08:51:55;9.63;;;4.40;;
21305;SDS011;10812;51.838;5.838;2023-02-18T08:54:23;8.27;;;4.20;;
21305;SDS011;10812;51.838;5.838;2023-02-18T08:56:52;8.23;;;3.90;;
21305;SDS011;10812;51.838;5.838;2023-02-18T08:59:24;12.53;;;4.27;;
21305;SDS011;10812;51.838;5.838;2023-02-18T09:01:52;12.53;;;4.03;;
21305;SDS011;10812;51.838;5.838;2023-02-18T09:04:20;14.03;;;4.10;;
21305;SDS011;10812;51.838;5.838;2023-02-18T09:06:49;8.13;;;3.93;;
21305;SDS011;10812;51.838;5.838;2023-02-18T09:09:17;10.27;;;3.53;;
21305;SDS011;10812;51.838;5.838;2023-02-18T09:11:45;10.17;;;3.67;;
21305;SDS011;10812;51.838;5.838;2023-02-18T09:14:13;11.73;;;3.63;;
21305;SDS011;10812;51.838;5.838;2023-02-18T09:16:43;8.03;;;3.67;;
21305;SDS011;10812;51.838;5.838;2023-02-18T09:19:11;9.33;;;3.90;;
21305;SDS011;10812;51.838;5.838;2023-02-18T09:21:39;10.87;;;4.63;;
21305;SDS011;10812;51.838;5.838;2023-02-18T09:24:07;12.97;;;4.93;;
21305;SDS011;10812;51.838;5.838;2023-02-18T09:26:37;8.90;;;4.27;;
21305;SDS011;10812;51.838;5.838;2023-02-18T09:29:05;11.13;;;4.30;;
21305;SDS011;10812;51.838;5.838;2023-02-18T09:31:33;11.53;;;4.97;;
21305;SDS011;10812;51.838;5.838;2023-02-18T09:34:04;16.10;;;4.83;;
21305;SDS011;10812;51.838;5.838;2023-02-18T09:36:33;11.10;;;4.23;;
21305;SDS011;10812;51.838;5.838;2023-02-18T09:39:01;9.90;;;4.27;;
21305;SDS011;10812;51.838;5.838;2023-02-18T09:41:31;10.43;;;4.83;;
21305;SDS011;10812;51.838;5.838;2023-02-18T09:44:08;13.20;;;5.20;;
21305;SDS011;10812;51.838;5.838;2023-02-18T09:46:41;11.40;;;5.40;;
21305;SDS011;10812;51.838;5.838;2023-02-18T09:49:17;12.60;;;5.00;;
21305;SDS011;10812;51.838;5.838;2023-02-18T09:51:49;10.87;;;4.50;;
21305;SDS011;10812;51.838;5.838;2023-02-18T09:54:18;10.07;;;4.13;;
21305;SDS011;10812;51.838;5.838;2023-02-18T09:56:48;11.47;;;4.67;;
21305;SDS011;10812;51.838;5.838;2023-02-18T09:59:19;13.83;;;5.47;;
21305;SDS011;10812;51.838;5.838;2023-02-18T10:01:50;8.83;;;3.50;;
21305;SDS011;10812;51.838;5.838;2023-02-18T10:04:22;7.13;;;3.50;;
21305;SDS011;10812;51.838;5.838;2023-02-18T10:06:55;15.07;;;4.63;;
21305;SDS011;10812;51.838;5.838;2023-02-18T10:09:27;13.43;;;3.67;;
21305;SDS011;10812;51.838;5.838;2023-02-18T10:12:00;10.33;;;3.10;;
21305;SDS011;10812;51.838;5.838;2023-02-18T10:14:37;11.80;;;3.60;;
21305;SDS011;10812;51.838;5.838;2023-02-18T10:17:05;10.77;;;3.77;;
21305;SDS011;10812;51.838;5.838;2023-02-18T10:19:36;7.77;;;3.37;;
21305;SDS011;10812;51.838;5.838;2023-02-18T10:22:07;9.07;;;3.00;;
21305;SDS011;10812;51.838;5.838;2023-02-18T10:24:41;11.73;;;3.57;;
21305;SDS011;10812;51.838;5.838;2023-02-18T10:27:14;8.47;;;3.27;;
21305;SDS011;10812;51.838;5.838;2023-02-18T10:29:47;8.53;;;3.00;;
21305;SDS011;10812;51.838;5.838;2023-02-18T10:32:18;4.00;;;2.80;;
21305;SDS011;10812;51.838;5.838;2023-02-18T10:34:52;14.90;;;3.67;;
21305;SDS011;10812;51.838;5.838;2023-02-18T10:37:40;6.63;;;3.50;;
21305;SDS011;10812;51.838;5.838;2023-02-18T10:40:22;9.23;;;3.03;;
21305;SDS011;10812;51.838;5.838;2023-02-18T10:42:59;9.00;;;3.40;;
21305;SDS011;10812;51.838;5.838;2023-02-18T10:45:35;9.30;;;3.63;;
21305;SDS011;10812;51.838;5.838;2023-02-18T10:48:18;9.50;;;3.10;;
21305;SDS011;10812;51.838;5.838;2023-02-18T10:50:56;10.60;;;3.30;;
21305;SDS011;10812;51.838;5.838;2023-02-18T10:53:30;9.63;;;2.63;;
21305;SDS011;10812;51.838;5.838;2023-02-18T10:56:00;8.13;;;3.57;;
21305;SDS011;10812;51.838;5.838;2023-02-18T10:58:30;7.37;;;3.27;;
21305;SDS011;10812;51.838;5.838;2023-02-18T11:01:00;7.37;;;3.07;;
21305;SDS011;10812;51.838;5.838;2023-02-18T11:03:38;6.57;;;2.73;;
21305;SDS011;10812;51.838;5.838;2023-02-18T11:06:15;5.77;;;2.90;;
21305;SDS011;10812;51.838;5.838;2023-02-18T11:08:48;7.87;;;3.00;;
21305;SDS011;10812;51.838;5.838;2023-02-18T11:11:19;9.67;;;3.33;;
21305;SDS011;10812;51.838;5.838;2023-02-18T11:13:52;8.23;;;3.97;;
21305;SDS011;10812;51.838;5.838;2023-02-18T11:16:21;8.40;;;3.77;;
21305;SDS011;10812;51.838;5.838;2023-02-18T11:18:53;14.60;;;3.80;;
21305;SDS011;10812;51.838;5.838;2023-02-18T11:21:27;12.80;;;3.03;;
21305;SDS011;10812;51.838;5.838;2023-02-18T11:24:05;8.37;;;3.67;;
21305;SDS011;10812;51.838;5.838;2023-02-18T11:26:35;7.37;;;4.00;;
21305;SDS011;10812;51.838;5.838;2023-02-18T11:29:06;9.40;;;2.87;;
21305;SDS011;10812;51.838;5.838;2023-02-18T11:31:42;8.47;;;2.97;;
21305;SDS011;10812;51.838;5.838;2023-02-18T11:34:14;6.93;;;3.30;;
21305;SDS011;10812;51.838;5.838;2023-02-18T11:36:45;6.67;;;3.47;;
21305;SDS011;10812;51.838;5.838;2023-02-18T11:39:17;8.07;;;3.33;;
21305;SDS011;10812;51.838;5.838;2023-02-18T11:41:48;7.43;;;2.93;;
21305;SDS011;10812;51.838;5.838;2023-02-18T11:44:24;9.30;;;2.83;;
21305;SDS011;10812;51.838;5.838;2023-02-18T11:46:57;10.60;;;2.67;;
21305;SDS011;10812;51.838;5.838;2023-02-18T11:49:27;7.87;;;2.50;;
21305;SDS011;10812;51.838;5.838;2023-02-18T11:52:03;9.17;;;2.57;;
21305;SDS011;10812;51.838;5.838;2023-02-18T11:54:40;7.60;;;2.17;;
21305;SDS011;10812;51.838;5.838;2023-02-18T11:57:10;5.17;;;2.40;;
21305;SDS011;10812;51.838;5.838;2023-02-18T11:59:40;8.80;;;2.60;;
21305;SDS011;10812;51.838;5.838;2023-02-18T12:02:16;10.33;;;2.57;;
21305;SDS011;10812;51.838;5.838;2023-02-18T12:04:56;8.97;;;2.33;;
21305;SDS011;10812;51.838;5.838;2023-02-18T12:07:30;4.97;;;2.47;;
21305;SDS011;10812;51.838;5.838;2023-02-18T12:10:10;3.90;;;1.67;;
21305;SDS011;10812;51.838;5.838;2023-02-18T12:12:43;8.60;;;2.50;;
21305;SDS011;10812;51.838;5.838;2023-02-18T12:15:15;10.60;;;2.53;;
21305;SDS011;10812;51.838;5.838;2023-02-18T12:17:51;9.07;;;2.27;;
21305;SDS011;10812;51.838;5.838;2023-02-18T12:20:35;7.57;;;2.40;;
21305;SDS011;10812;51.838;5.838;2023-02-18T12:23:16;10.77;;;2.63;;
21305;SDS011;10812;51.838;5.838;2023-02-18T12:25:55;11.13;;;2.27;;
21305;SDS011;10812;51.838;5.838;2023-02-18T12:31:29;4.03;;;1.77;;
21305;SDS011;10812;51.838;5.838;2023-02-18T12:34:21;10.27;;;2.67;;
21305;SDS011;10812;51.838;5.838;2023-02-18T12:37:05;5.40;;;2.10;;
21305;SDS011;10812;51.838;5.838;2023-02-18T12:40:00;3.77;;;1.57;;
21305;SDS011;10812;51.838;5.838;2023-02-18T12:42:45;7.47;;;1.97;;
21305;SDS011;10812;51.838;5.838;2023-02-18T12:45:27;7.67;;;2.03;;
21305;SDS011;10812;51.838;5.838;2023-02-18T12:48:13;9.17;;;2.27;;
21305;SDS011;10812;51.838;5.838;2023-02-18T12:51:11;4.97;;;1.87;;
21305;SDS011;10812;51.838;5.838;2023-02-18T12:54:01;10.40;;;2.37;;
21305;SDS011;10812;51.838;5.838;2023-02-18T12:56:55;9.53;;;2.03;;
21305;SDS011;10812;51.838;5.838;2023-02-18T12:59:45;7.30;;;2.10;;
21305;SDS011;10812;51.838;5.838;2023-02-18T13:02:41;6.57;;;2.40;;
21305;SDS011;10812;51.838;5.838;2023-02-18T13:05:29;7.77;;;2.03;;
21305;SDS011;10812;51.838;5.838;2023-02-18T13:08:14;9.03;;;2.30;;
21305;SDS011;10812;51.838;5.838;2023-02-18T13:11:00;10.47;;;2.27;;
21305;SDS011;10812;51.838;5.838;2023-02-18T13:13:38;6.33;;;2.50;;
21305;SDS011;10812;51.838;5.838;2023-02-18T13:16:09;9.43;;;2.57;;
21305;SDS011;10812;51.838;5.838;2023-02-18T13:18:41;8.70;;;3.93;;
21305;SDS011;10812;51.838;5.838;2023-02-18T13:21:14;6.53;;;2.40;;
21305;SDS011;10812;51.838;5.838;2023-02-18T13:23:45;7.40;;;2.43;;
21305;SDS011;10812;51.838;5.838;2023-02-18T13:26:19;6.20;;;2.30;;
21305;SDS011;10812;51.838;5.838;2023-02-18T13:28:54;11.43;;;2.67;;
21305;SDS011;10812;51.838;5.838;2023-02-18T13:31:34;9.30;;;2.53;;
21305;SDS011;10812;51.838;5.838;2023-02-18T13:34:11;5.70;;;2.30;;
21305;SDS011;10812;51.838;5.838;2023-02-18T13:36:46;7.70;;;2.03;;
21305;SDS011;10812;51.838;5.838;2023-02-18T13:39:21;8.83;;;2.20;;
21305;SDS011;10812;51.838;5.838;2023-02-18T13:41:50;4.23;;;2.10;;
21305;SDS011;10812;51.838;5.838;2023-02-18T13:44:51;7.97;;;2.30;;
21305;SDS011;10812;51.838;5.838;2023-02-18T13:47:37;6.73;;;2.17;;
21305;SDS011;10812;51.838;5.838;2023-02-18T13:50:20;9.40;;;2.60;;
21305;SDS011;10812;51.838;5.838;2023-02-18T13:52:56;9.23;;;2.20;;
21305;SDS011;10812;51.838;5.838;2023-02-18T13:55:45;6.13;;;2.17;;
21305;SDS011;10812;51.838;5.838;2023-02-18T13:58:23;11.90;;;2.47;;
21305;SDS011;10812;51.838;5.838;2023-02-18T14:00:58;4.03;;;1.93;;
21305;SDS011;10812;51.838;5.838;2023-02-18T14:03:31;10.30;;;1.83;;
21305;SDS011;10812;51.838;5.838;2023-02-18T14:08:50;10.50;;;2.60;;
21305;SDS011;10812;51.838;5.838;2023-02-18T14:11:33;8.73;;;2.80;;
21305;SDS011;10812;51.838;5.838;2023-02-18T14:14:14;10.10;;;2.80;;
21305;SDS011;10812;51.838;5.838;2023-02-18T14:20:26;6.57;;;2.60;;
21305;SDS011;10812;51.838;5.838;2023-02-18T14:22:58;6.40;;;2.50;;
21305;SDS011;10812;51.838;5.838;2023-02-18T14:25:32;10.03;;;3.43;;
21305;SDS011;10812;51.838;5.838;2023-02-18T14:28:03;10.10;;;2.60;;
21305;SDS011;10812;51.838;5.838;2023-02-18T14:36:54;8.07;;;2.50;;
21305;SDS011;10812;51.838;5.838;2023-02-18T14:39:32;7.33;;;2.33;;
21305;SDS011;10812;51.838;5.838;2023-02-18T14:42:08;7.23;;;2.10;;
21305;SDS011;10812;51.838;5.838;2023-02-18T14:44:53;8.83;;;2.87;;
21305;SDS011;10812;51.838;5.838;2023-02-18T14:48:04;9.43;;;2.43;;
21305;SDS011;10812;51.838;5.838;2023-02-18T14:50:50;6.60;;;2.70;;
21305;SDS011;10812;51.838;5.838;2023-02-18T14:53:19;7.57;;;2.43;;
21305;SDS011;10812;51.838;5.838;2023-02-18T14:55:50;7.60;;;2.50;;
21305;SDS011;10812;51.838;5.838;2023-02-18T14:58:25;6.63;;;2.90;;
21305;SDS011;10812;51.838;5.838;2023-02-18T15:00:58;9.57;;;2.47;;
21305;SDS011;10812;51.838;5.838;2023-02-18T15:03:33;9.43;;;3.50;;
21305;SDS011;10812;51.838;5.838;2023-02-18T15:06:02;9.03;;;2.30;;
21305;SDS011;10812;51.838;5.838;2023-02-18T15:08:35;10.47;;;3.30;;
21305;SDS011;10812;51.838;5.838;2023-02-18T15:11:05;10.43;;;2.67;;
21305;SDS011;10812;51.838;5.838;2023-02-18T15:13:35;6.60;;;2.43;;
21305;SDS011;10812;51.838;5.838;2023-02-18T15:16:11;7.13;;;1.90;;
21305;SDS011;10812;51.838;5.838;2023-02-18T15:18:43;6.13;;;2.27;;
21305;SDS011;10812;51.838;5.838;2023-02-18T15:21:20;5.03;;;2.40;;
21305;SDS011;10812;51.838;5.838;2023-02-18T15:23:52;8.30;;;2.80;;
21305;SDS011;10812;51.838;5.838;2023-02-18T15:26:20;10.17;;;2.60;;
21305;SDS011;10812;51.838;5.838;2023-02-18T15:28:53;7.17;;;2.30;;
21305;SDS011;10812;51.838;5.838;2023-02-18T15:31:25;9.50;;;2.50;;
21305;SDS011;10812;51.838;5.838;2023-02-18T15:33:54;10.10;;;2.60;;
21305;SDS011;10812;51.838;5.838;2023-02-18T15:36:24;7.53;;;3.10;;
21305;SDS011;10812;51.838;5.838;2023-02-18T15:38:55;9.97;;;2.47;;
21305;SDS011;10812;51.838;5.838;2023-02-18T15:41:23;4.87;;;2.30;;
21305;SDS011;10812;51.838;5.838;2023-02-18T15:43:53;5.27;;;2.10;;
21305;SDS011;10812;51.838;5.838;2023-02-18T15:46:23;7.60;;;2.30;;
21305;SDS011;10812;51.838;5.838;2023-02-18T15:48:52;8.53;;;3.20;;
21305;SDS011;10812;51.838;5.838;2023-02-18T15:51:24;9.83;;;3.40;;